sensor_id;sensor_type;location;lat;lon;timestamp;pressure;altitude;pressure_sealevel;temperature;humidity
5550;BME280;2798;42.716;23.256;2022-12-07T00:03:44;94707.19;;;10.21;90.32
5550;BME280;2798;42.716;23.256;2022-12-07T00:06:12;94707.91;;;10.23;89.58
5550;BME280;2798;42.716;23.256;2022-12-07T00:08:38;94713.25;;;10.20;90.37
5550;BME280;2798;42.716;23.256;2022-12-07T00:11:05;94702.25;;;10.18;90.36
5550;BME280;2798;42.716;23.256;2022-12-07T00:13:31;94708.44;;;10.15;90.30
5550;BME280;2798;42.716;23.256;2022-12-07T00:16:17;94712.66;;;10.16;90.21
5550;BME280;2798;42.716;23.256;2022-12-07T00:18:44;94711.75;;;10.17;90.49
5550;BME280;2798;42.716;23.256;2022-12-07T00:21:18;94717.00;;;10.16;90.07
5550;BME280;2798;42.716;23.256;2022-12-07T00:23:46;94712.75;;;10.14;90.78
5550;BME280;2798;42.716;23.256;2022-12-07T00:26:15;94714.81;;;10.09;90.49
5550;BME280;2798;42.716;23.256;2022-12-07T00:28:41;94710.41;;;10.11;90.90
5550;BME280;2798;42.716;23.256;2022-12-07T00:31:11;94712.03;;;10.12;90.60
5550;BME280;2798;42.716;23.256;2022-12-07T00:33:38;94724.91;;;10.12;90.66
5550;BME280;2798;42.716;23.256;2022-12-07T00:36:07;94722.53;;;10.09;90.99
5550;BME280;2798;42.716;23.256;2022-12-07T00:38:35;94721.63;;;10.10;90.35
5550;BME280;2798;42.716;23.256;2022-12-07T00:41:04;94709.78;;;10.08;90.62
5550;BME280;2798;42.716;23.256;2022-12-07T00:43:30;94722.53;;;10.09;90.78
5550;BME280;2798;42.716;23.256;2022-12-07T00:45:56;94713.19;;;10.08;90.35
5550;BME280;2798;42.716;23.256;2022-12-07T00:48:22;94707.34;;;10.06;90.74
5550;BME280;2798;42.716;23.256;2022-12-07T00:50:48;94712.38;;;10.08;90.65
5550;BME280;2798;42.716;23.256;2022-12-07T00:53:13;94697.59;;;9.98;90.66
5550;BME280;2798;42.716;23.256;2022-12-07T00:55:39;94709.91;;;10.06;90.63
5550;BME280;2798;42.716;23.256;2022-12-07T00:58:05;94706.66;;;10.04;90.87
5550;BME280;2798;42.716;23.256;2022-12-07T01:00:30;94703.03;;;10.07;90.62
5550;BME280;2798;42.716;23.256;2022-12-07T01:02:56;94714.34;;;10.04;91.27
5550;BME280;2798;42.716;23.256;2022-12-07T01:05:21;94691.84;;;9.95;90.91
5550;BME280;2798;42.716;23.256;2022-12-07T01:07:47;94706.66;;;10.04;91.18
5550;BME280;2798;42.716;23.256;2022-12-07T01:10:13;94710.00;;;10.05;90.97
5550;BME280;2798;42.716;23.256;2022-12-07T01:12:39;94703.97;;;10.06;90.69
5550;BME280;2798;42.716;23.256;2022-12-07T01:15:05;94695.53;;;10.04;91.29
5550;BME280;2798;42.716;23.256;2022-12-07T01:17:31;94690.50;;;10.02;90.87
5550;BME280;2798;42.716;23.256;2022-12-07T01:19:56;94697.50;;;10.00;91.13
5550;BME280;2798;42.716;23.256;2022-12-07T01:22:22;94695.63;;;10.02;91.27
5550;BME280;2798;42.716;23.256;2022-12-07T01:24:47;94694.13;;;9.99;91.26
5550;BME280;2798;42.716;23.256;2022-12-07T01:27:13;94695.63;;;10.02;91.06
5550;BME280;2798;42.716;23.256;2022-12-07T01:29:39;94692.22;;;10.01;91.27
5550;BME280;2798;42.716;23.256;2022-12-07T01:32:04;94686.41;;;9.99;91.14
5550;BME280;2798;42.716;23.256;2022-12-07T01:34:30;94686.59;;;9.96;91.12
5550;BME280;2798;42.716;23.256;2022-12-07T01:36:55;94689.28;;;9.95;90.87
5550;BME280;2798;42.716;23.256;2022-12-07T01:39:21;94687.19;;;10.00;90.78
5550;BME280;2798;42.716;23.256;2022-12-07T01:41:47;94683.91;;;9.98;91.16
5550;BME280;2798;42.716;23.256;2022-12-07T01:46:42;94664.75;;;9.77;90.58
5550;BME280;2798;42.716;23.256;2022-12-07T01:49:12;94681.16;;;10.01;90.90
5550;BME280;2798;42.716;23.256;2022-12-07T01:51:40;94676.91;;;10.00;90.69
5550;BME280;2798;42.716;23.256;2022-12-07T01:54:08;94673.53;;;9.99;90.88
5550;BME280;2798;42.716;23.256;2022-12-07T01:56:37;94669.22;;;10.00;91.24
5550;BME280;2798;42.716;23.256;2022-12-07T01:59:04;94670.97;;;9.99;90.94
5550;BME280;2798;42.716;23.256;2022-12-07T02:01:29;94672.72;;;9.99;90.92
5550;BME280;2798;42.716;23.256;2022-12-07T02:03:55;94644.72;;;9.83;90.86
5550;BME280;2798;42.716;23.256;2022-12-07T02:06:24;94655.50;;;9.88;91.35
5550;BME280;2798;42.716;23.256;2022-12-07T02:08:50;94669.53;;;9.95;91.24
5550;BME280;2798;42.716;23.256;2022-12-07T02:11:17;94667.91;;;9.94;91.35
5550;BME280;2798;42.716;23.256;2022-12-07T02:13:44;94662.03;;;9.92;91.65
5550;BME280;2798;42.716;23.256;2022-12-07T02:24:42;94662.88;;;9.93;91.77
5550;BME280;2798;42.716;23.256;2022-12-07T02:27:33;94664.63;;;9.92;91.65
5550;BME280;2798;42.716;23.256;2022-12-07T02:30:16;94657.94;;;9.89;91.59
5550;BME280;2798;42.716;23.256;2022-12-07T02:33:13;94653.72;;;9.88;91.58
5550;BME280;2798;42.716;23.256;2022-12-07T02:35:42;94652.91;;;9.88;91.32
5550;BME280;2798;42.716;23.256;2022-12-07T02:38:35;94655.94;;;9.82;91.53
5550;BME280;2798;42.716;23.256;2022-12-07T02:41:10;94655.81;;;9.83;91.47
5550;BME280;2798;42.716;23.256;2022-12-07T02:43:50;94652.84;;;9.76;92.03
5550;BME280;2798;42.716;23.256;2022-12-07T02:46:24;94651.91;;;9.77;91.48
5550;BME280;2798;42.716;23.256;2022-12-07T02:48:51;94655.53;;;9.75;91.48
5550;BME280;2798;42.716;23.256;2022-12-07T02:51:18;94650.50;;;9.73;91.38
5550;BME280;2798;42.716;23.256;2022-12-07T02:53:44;94642.06;;;9.71;92.09
5550;BME280;2798;42.716;23.256;2022-12-07T03:10:27;94635.94;;;9.61;91.39
5550;BME280;2798;42.716;23.256;2022-12-07T03:18:53;94634.50;;;9.57;92.14
5550;BME280;2798;42.716;23.256;2022-12-07T03:21:24;94638.81;;;9.56;91.28
5550;BME280;2798;42.716;23.256;2022-12-07T03:23:56;94635.56;;;9.54;91.97
5550;BME280;2798;42.716;23.256;2022-12-07T03:26:28;94595.44;;;9.27;92.30
5550;BME280;2798;42.716;23.256;2022-12-07T03:29:00;94632.06;;;9.55;91.50
5550;BME280;2798;42.716;23.256;2022-12-07T03:31:39;94639.88;;;9.54;92.43
5550;BME280;2798;42.716;23.256;2022-12-07T03:34:23;94628.97;;;9.50;92.01
5550;BME280;2798;42.716;23.256;2022-12-07T03:39:38;94631.31;;;9.53;92.14
5550;BME280;2798;42.716;23.256;2022-12-07T03:42:07;94618.41;;;9.42;91.88
5550;BME280;2798;42.716;23.256;2022-12-07T03:44:35;94643.38;;;9.52;92.44
5550;BME280;2798;42.716;23.256;2022-12-07T03:47:05;94645.09;;;9.52;91.60
5550;BME280;2798;42.716;23.256;2022-12-07T03:55:10;94618.28;;;9.43;92.61
5550;BME280;2798;42.716;23.256;2022-12-07T03:57:37;94630.75;;;9.49;92.64
5550;BME280;2798;42.716;23.256;2022-12-07T04:00:05;94633.31;;;9.49;92.65
5550;BME280;2798;42.716;23.256;2022-12-07T04:02:32;94625.72;;;9.48;91.97
5550;BME280;2798;42.716;23.256;2022-12-07T04:04:58;94617.28;;;9.46;92.25
5550;BME280;2798;42.716;23.256;2022-12-07T04:07:24;94623.03;;;9.49;92.17
5550;BME280;2798;42.716;23.256;2022-12-07T04:09:50;94620.34;;;9.51;91.57
5550;BME280;2798;42.716;23.256;2022-12-07T04:12:15;94624.78;;;9.49;92.16
5550;BME280;2798;42.716;23.256;2022-12-07T04:14:40;94632.59;;;9.47;92.04
5550;BME280;2798;42.716;23.256;2022-12-07T04:17:06;94625.78;;;9.46;91.77
5550;BME280;2798;42.716;23.256;2022-12-07T04:19:33;94616.06;;;9.38;91.40
5550;BME280;2798;42.716;23.256;2022-12-07T04:22:00;94625.72;;;9.48;92.55
5550;BME280;2798;42.716;23.256;2022-12-07T04:24:25;94631.66;;;9.48;92.77
5550;BME280;2798;42.716;23.256;2022-12-07T04:26:51;94626.72;;;9.45;91.90
5550;BME280;2798;42.716;23.256;2022-12-07T04:29:17;94627.25;;;9.37;92.30
5550;BME280;2798;42.716;23.256;2022-12-07T04:31:43;94619.34;;;9.40;92.52
5550;BME280;2798;42.716;23.256;2022-12-07T04:34:09;94623.22;;;9.46;92.02
5550;BME280;2798;42.716;23.256;2022-12-07T04:36:35;94626.84;;;9.44;92.15
5550;BME280;2798;42.716;23.256;2022-12-07T04:39:01;94627.56;;;9.46;92.40
5550;BME280;2798;42.716;23.256;2022-12-07T04:41:27;94628.34;;;9.46;92.38
5550;BME280;2798;42.716;23.256;2022-12-07T04:43:57;94621.59;;;9.45;92.24
5550;BME280;2798;42.716;23.256;2022-12-07T04:46:24;94626.84;;;9.44;92.77
5550;BME280;2798;42.716;23.256;2022-12-07T04:48:51;94632.81;;;9.44;92.50
5550;BME280;2798;42.716;23.256;2022-12-07T04:51:20;94633.72;;;9.43;92.04
5550;BME280;2798;42.716;23.256;2022-12-07T04:53:46;94638.25;;;9.39;92.78
5550;BME280;2798;42.716;23.256;2022-12-07T04:56:12;94611.25;;;9.21;92.69
5550;BME280;2798;42.716;23.256;2022-12-07T04:58:37;94641.03;;;9.36;92.61
5550;BME280;2798;42.716;23.256;2022-12-07T05:01:03;94640.94;;;9.38;92.05
5550;BME280;2798;42.716;23.256;2022-12-07T05:03:28;94636.72;;;9.37;92.92
5550;BME280;2798;42.716;23.256;2022-12-07T05:05:53;94655.53;;;9.37;92.29
5550;BME280;2798;42.716;23.256;2022-12-07T05:08:19;94632.41;;;9.37;92.17
5550;BME280;2798;42.716;23.256;2022-12-07T05:10:44;94639.28;;;9.37;92.46
5550;BME280;2798;42.716;23.256;2022-12-07T05:13:09;94625.03;;;9.33;92.58
5550;BME280;2798;42.716;23.256;2022-12-07T05:15:35;94628.19;;;9.36;91.54
5550;BME280;2798;42.716;23.256;2022-12-07T05:18:00;94625.84;;;9.33;92.31
5550;BME280;2798;42.716;23.256;2022-12-07T05:20:26;94632.94;;;9.30;91.80
5550;BME280;2798;42.716;23.256;2022-12-07T05:22:51;94640.53;;;9.31;92.16
5550;BME280;2798;42.716;23.256;2022-12-07T05:25:17;94646.50;;;9.32;92.43
5550;BME280;2798;42.716;23.256;2022-12-07T05:27:42;94600.53;;;9.02;92.19
5550;BME280;2798;42.716;23.256;2022-12-07T05:30:08;94620.00;;;9.18;92.06
5550;BME280;2798;42.716;23.256;2022-12-07T05:32:33;94632.44;;;9.24;91.93
5550;BME280;2798;42.716;23.256;2022-12-07T05:34:58;94635.00;;;9.24;92.40
5550;BME280;2798;42.716;23.256;2022-12-07T05:37:24;94629.56;;;9.16;92.40
5550;BME280;2798;42.716;23.256;2022-12-07T05:39:49;94638.50;;;9.23;92.03
5550;BME280;2798;42.716;23.256;2022-12-07T05:42:15;94624.94;;;9.21;92.06
5550;BME280;2798;42.716;23.256;2022-12-07T05:44:43;94634.25;;;9.22;92.18
5550;BME280;2798;42.716;23.256;2022-12-07T05:47:10;94628.34;;;9.22;92.33
5550;BME280;2798;42.716;23.256;2022-12-07T05:49:35;94599.50;;;9.05;92.05
5550;BME280;2798;42.716;23.256;2022-12-07T05:52:01;94623.31;;;9.20;92.16
5550;BME280;2798;42.716;23.256;2022-12-07T05:54:27;94624.94;;;9.21;92.18
5550;BME280;2798;42.716;23.256;2022-12-07T05:56:53;94619.06;;;9.19;92.97
5550;BME280;2798;42.716;23.256;2022-12-07T05:59:18;94616.09;;;9.25;92.22
5550;BME280;2798;42.716;23.256;2022-12-07T06:04:25;94621.09;;;9.27;92.96
5550;BME280;2798;42.716;23.256;2022-12-07T06:06:51;94615.09;;;9.15;92.68
5550;BME280;2798;42.716;23.256;2022-12-07T06:09:18;94622.03;;;9.26;92.60
5550;BME280;2798;42.716;23.256;2022-12-07T06:11:43;94631.38;;;9.27;92.28
5550;BME280;2798;42.716;23.256;2022-12-07T06:14:27;94629.03;;;9.24;92.40
5550;BME280;2798;42.716;23.256;2022-12-07T06:16:53;94626.84;;;9.31;92.34
5550;BME280;2798;42.716;23.256;2022-12-07T06:19:18;94626.06;;;9.30;93.34
5550;BME280;2798;42.716;23.256;2022-12-07T06:21:44;94627.81;;;9.30;92.56
5550;BME280;2798;42.716;23.256;2022-12-07T06:24:13;94624.28;;;9.31;93.39
5550;BME280;2798;42.716;23.256;2022-12-07T06:26:39;94628.41;;;9.33;92.99
5550;BME280;2798;42.716;23.256;2022-12-07T06:29:05;94625.97;;;9.32;92.72
5550;BME280;2798;42.716;23.256;2022-12-07T06:31:30;94669.41;;;9.35;92.64
5550;BME280;2798;42.716;23.256;2022-12-07T06:34:00;94636.34;;;9.30;92.97
5550;BME280;2798;42.716;23.256;2022-12-07T06:36:26;94633.44;;;9.35;92.65
5550;BME280;2798;42.716;23.256;2022-12-07T06:38:52;94645.03;;;9.40;93.03
5550;BME280;2798;42.716;23.256;2022-12-07T06:41:18;94649.34;;;9.40;92.66
5550;BME280;2798;42.716;23.256;2022-12-07T06:43:43;94648.31;;;9.43;92.16
5550;BME280;2798;42.716;23.256;2022-12-07T06:46:09;94648.53;;;9.39;92.34
5550;BME280;2798;42.716;23.256;2022-12-07T06:48:34;94654.88;;;9.47;92.51
5550;BME280;2798;42.716;23.256;2022-12-07T06:51:00;94615.50;;;9.22;92.51
5550;BME280;2798;42.716;23.256;2022-12-07T06:53:25;94655.72;;;9.47;92.64
5550;BME280;2798;42.716;23.256;2022-12-07T06:55:50;94652.00;;;9.51;91.83
5550;BME280;2798;42.716;23.256;2022-12-07T06:58:17;94650.47;;;9.49;92.52
5550;BME280;2798;42.716;23.256;2022-12-07T07:00:43;94652.59;;;9.55;92.24
5550;BME280;2798;42.716;23.256;2022-12-07T07:03:09;94652.38;;;9.58;92.35
5550;BME280;2798;42.716;23.256;2022-12-07T07:05:35;94651.00;;;9.41;92.62
5550;BME280;2798;42.716;23.256;2022-12-07T07:08:01;94655.13;;;9.31;92.32
5550;BME280;2798;42.716;23.256;2022-12-07T07:10:26;94641.47;;;9.30;93.01
5550;BME280;2798;42.716;23.256;2022-12-07T07:12:52;94654.69;;;9.37;94.29
5550;BME280;2798;42.716;23.256;2022-12-07T07:15:17;94660.69;;;8.98;90.08
5550;BME280;2798;42.716;23.256;2022-12-07T07:17:43;94617.97;;;8.58;89.58
5550;BME280;2798;42.716;23.256;2022-12-07T07:20:09;94649.91;;;8.67;90.09
5550;BME280;2798;42.716;23.256;2022-12-07T07:22:34;94649.97;;;8.52;92.04
5550;BME280;2798;42.716;23.256;2022-12-07T07:25:16;94649.94;;;8.39;93.31
5550;BME280;2798;42.716;23.256;2022-12-07T07:27:41;94604.63;;;7.99;93.79
5550;BME280;2798;42.716;23.256;2022-12-07T07:30:07;94644.41;;;8.33;93.84
5550;BME280;2798;42.716;23.256;2022-12-07T07:32:33;94652.28;;;8.29;94.55
5550;BME280;2798;42.716;23.256;2022-12-07T07:34:59;94655.25;;;8.23;95.15
5550;BME280;2798;42.716;23.256;2022-12-07T07:37:25;94662.94;;;8.23;95.16
5550;BME280;2798;42.716;23.256;2022-12-07T07:39:50;94652.06;;;8.20;95.71
5550;BME280;2798;42.716;23.256;2022-12-07T07:42:16;94652.16;;;8.18;95.92
5550;BME280;2798;42.716;23.256;2022-12-07T07:44:41;94655.22;;;8.10;96.67
5550;BME280;2798;42.716;23.256;2022-12-07T07:47:06;94648.72;;;8.04;95.96
5550;BME280;2798;42.716;23.256;2022-12-07T07:49:32;94650.84;;;8.38;96.63
5550;BME280;2798;42.716;23.256;2022-12-07T07:51:57;94655.47;;;8.61;97.13
5550;BME280;2798;42.716;23.256;2022-12-07T07:54:23;94650.94;;;8.77;97.07
5550;BME280;2798;42.716;23.256;2022-12-07T07:56:48;94644.47;;;8.72;96.14
5550;BME280;2798;42.716;23.256;2022-12-07T07:59:14;94634.06;;;8.47;92.72
5550;BME280;2798;42.716;23.256;2022-12-07T08:01:39;94648.28;;;8.38;93.08
5550;BME280;2798;42.716;23.256;2022-12-07T08:04:05;94649.22;;;8.37;93.77
5550;BME280;2798;42.716;23.256;2022-12-07T08:06:30;94649.63;;;8.31;94.42
5550;BME280;2798;42.716;23.256;2022-12-07T08:08:56;94648.25;;;8.25;95.22
5550;BME280;2798;42.716;23.256;2022-12-07T08:11:23;94649.28;;;8.23;95.45
5550;BME280;2798;42.716;23.256;2022-12-07T08:13:49;94613.22;;;7.98;94.92
5550;BME280;2798;42.716;23.256;2022-12-07T08:16:14;94642.00;;;8.16;95.88
5550;BME280;2798;42.716;23.256;2022-12-07T08:18:40;94656.66;;;8.14;95.79
5550;BME280;2798;42.716;23.256;2022-12-07T08:21:07;94654.69;;;8.05;96.88
5550;BME280;2798;42.716;23.256;2022-12-07T08:23:34;94655.22;;;8.10;96.96
5550;BME280;2798;42.716;23.256;2022-12-07T08:26:04;94649.16;;;8.11;96.33
5550;BME280;2798;42.716;23.256;2022-12-07T08:28:31;94651.72;;;8.11;96.79
5550;BME280;2798;42.716;23.256;2022-12-07T08:31:03;94653.38;;;8.12;97.16
5550;BME280;2798;42.716;23.256;2022-12-07T08:33:30;94649.19;;;8.24;96.50
5550;BME280;2798;42.716;23.256;2022-12-07T08:36:03;94650.03;;;8.25;97.76
5550;BME280;2798;42.716;23.256;2022-12-07T08:38:29;94654.56;;;8.47;97.92
5550;BME280;2798;42.716;23.256;2022-12-07T08:40:58;94644.75;;;8.54;100.00
5550;BME280;2798;42.716;23.256;2022-12-07T08:43:24;94646.00;;;8.61;100.00
5550;BME280;2798;42.716;23.256;2022-12-07T08:46:18;94639.56;;;8.69;100.00
5550;BME280;2798;42.716;23.256;2022-12-07T08:49:08;94606.47;;;8.51;99.13
5550;BME280;2798;42.716;23.256;2022-12-07T08:51:35;94640.56;;;8.66;98.79
5550;BME280;2798;42.716;23.256;2022-12-07T08:54:04;94634.44;;;8.69;98.67
5550;BME280;2798;42.716;23.256;2022-12-07T08:56:31;94630.09;;;8.69;98.23
5550;BME280;2798;42.716;23.256;2022-12-07T08:59:06;94624.38;;;8.65;97.78
5550;BME280;2798;42.716;23.256;2022-12-07T09:01:32;94619.25;;;8.78;98.02
5550;BME280;2798;42.716;23.256;2022-12-07T09:03:58;94616.34;;;8.96;97.27
5550;BME280;2798;42.716;23.256;2022-12-07T09:06:24;94617.03;;;9.11;98.37
5550;BME280;2798;42.716;23.256;2022-12-07T09:08:52;94616.69;;;9.29;97.85
5550;BME280;2798;42.716;23.256;2022-12-07T09:11:19;94614.50;;;9.49;97.70
5550;BME280;2798;42.716;23.256;2022-12-07T09:13:44;94627.91;;;9.66;97.51
5550;BME280;2798;42.716;23.256;2022-12-07T09:16:18;94591.13;;;9.65;96.68
5550;BME280;2798;42.716;23.256;2022-12-07T09:18:43;94598.72;;;9.91;96.16
5550;BME280;2798;42.716;23.256;2022-12-07T09:21:21;94569.13;;;9.85;96.05
5550;BME280;2798;42.716;23.256;2022-12-07T09:23:47;94610.09;;;10.36;95.37
5550;BME280;2798;42.716;23.256;2022-12-07T09:26:12;94602.81;;;10.54;95.31
5550;BME280;2798;42.716;23.256;2022-12-07T09:28:38;94600.94;;;10.68;95.02
5550;BME280;2798;42.716;23.256;2022-12-07T09:31:05;94605.75;;;10.84;94.26
5550;BME280;2798;42.716;23.256;2022-12-07T09:33:30;94596.28;;;10.96;93.88
5550;BME280;2798;42.716;23.256;2022-12-07T09:35:56;94595.56;;;11.05;93.91
5550;BME280;2798;42.716;23.256;2022-12-07T09:38:21;94582.69;;;11.17;93.15
5550;BME280;2798;42.716;23.256;2022-12-07T09:40:47;94595.44;;;11.30;92.98
5550;BME280;2798;42.716;23.256;2022-12-07T09:43:18;94585.50;;;11.36;92.68
5550;BME280;2798;42.716;23.256;2022-12-07T09:45:46;94585.56;;;11.46;92.55
5550;BME280;2798;42.716;23.256;2022-12-07T09:48:51;94585.66;;;11.56;92.36
5550;BME280;2798;42.716;23.256;2022-12-07T09:51:20;94583.31;;;11.65;91.73
5550;BME280;2798;42.716;23.256;2022-12-07T09:53:46;94579.41;;;11.70;92.15
5550;BME280;2798;42.716;23.256;2022-12-07T09:56:17;94583.03;;;11.79;91.61
5550;BME280;2798;42.716;23.256;2022-12-07T09:58:43;94572.03;;;11.66;90.69
5550;BME280;2798;42.716;23.256;2022-12-07T10:01:13;94569.84;;;11.49;87.35
5550;BME280;2798;42.716;23.256;2022-12-07T10:03:40;94562.06;;;11.40;87.98
5550;BME280;2798;42.716;23.256;2022-12-07T10:06:12;94567.91;;;11.30;89.50
5550;BME280;2798;42.716;23.256;2022-12-07T10:08:37;94562.44;;;11.23;90.45
5550;BME280;2798;42.716;23.256;2022-12-07T10:11:03;94561.16;;;11.18;91.28
5550;BME280;2798;42.716;23.256;2022-12-07T10:13:44;94557.53;;;11.20;91.64
5550;BME280;2798;42.716;23.256;2022-12-07T10:18:49;94547.88;;;11.34;92.40
5550;BME280;2798;42.716;23.256;2022-12-07T10:21:16;94529.38;;;11.29;91.39
5550;BME280;2798;42.716;23.256;2022-12-07T10:23:59;94541.84;;;11.23;90.35
5550;BME280;2798;42.716;23.256;2022-12-07T10:26:30;94531.06;;;11.18;91.13
5550;BME280;2798;42.716;23.256;2022-12-07T10:28:59;94524.59;;;11.24;91.49
5550;BME280;2798;42.716;23.256;2022-12-07T10:31:26;94507.28;;;11.26;91.93
5550;BME280;2798;42.716;23.256;2022-12-07T10:33:55;94512.91;;;11.20;90.95
5550;BME280;2798;42.716;23.256;2022-12-07T10:39:13;94518.09;;;11.08;92.06
5550;BME280;2798;42.716;23.256;2022-12-07T10:42:00;94515.13;;;11.24;92.08
5550;BME280;2798;42.716;23.256;2022-12-07T10:44:29;94520.41;;;11.11;90.58
5550;BME280;2798;42.716;23.256;2022-12-07T10:50:17;94509.09;;;11.03;91.97
5550;BME280;2798;42.716;23.256;2022-12-07T11:01:25;94490.75;;;11.61;91.48
5550;BME280;2798;42.716;23.256;2022-12-07T11:07:05;94482.88;;;11.96;90.70
5550;BME280;2798;42.716;23.256;2022-12-07T11:12:16;94479.25;;;12.20;89.57
5550;BME280;2798;42.716;23.256;2022-12-07T11:17:26;94467.88;;;12.32;89.05
5550;BME280;2798;42.716;23.256;2022-12-07T11:30:27;94450.94;;;12.81;88.63
5550;BME280;2798;42.716;23.256;2022-12-07T11:33:11;94444.28;;;12.88;88.68
5550;BME280;2798;42.716;23.256;2022-12-07T11:38:17;94459.00;;;13.07;88.30
5550;BME280;2798;42.716;23.256;2022-12-07T11:40:46;94455.22;;;13.12;87.82
5550;BME280;2798;42.716;23.256;2022-12-07T11:46:15;94414.72;;;13.02;87.17
5550;BME280;2798;42.716;23.256;2022-12-07T11:51:34;94446.97;;;13.28;87.21
5550;BME280;2798;42.716;23.256;2022-12-07T11:54:10;94434.16;;;13.26;86.74
5550;BME280;2798;42.716;23.256;2022-12-07T11:56:37;94443.81;;;13.34;86.89
5550;BME280;2798;42.716;23.256;2022-12-07T11:59:32;94436.63;;;13.38;87.11
5550;BME280;2798;42.716;23.256;2022-12-07T12:02:13;94425.88;;;13.42;86.74
5550;BME280;2798;42.716;23.256;2022-12-07T12:07:21;94416.59;;;13.50;86.21
5550;BME280;2798;42.716;23.256;2022-12-07T12:10:00;94415.81;;;13.49;86.63
5550;BME280;2798;42.716;23.256;2022-12-07T12:15:38;94425.09;;;13.52;86.49
5550;BME280;2798;42.716;23.256;2022-12-07T12:21:11;94398.97;;;13.55;86.61
5550;BME280;2798;42.716;23.256;2022-12-07T12:23:45;94410.41;;;13.62;86.10
5550;BME280;2798;42.716;23.256;2022-12-07T12:26:20;94399.22;;;13.62;86.37
5550;BME280;2798;42.716;23.256;2022-12-07T12:33:51;94382.19;;;13.69;86.21
5550;BME280;2798;42.716;23.256;2022-12-07T12:51:53;94371.75;;;14.08;85.66
5550;BME280;2798;42.716;23.256;2022-12-07T12:54:25;94371.47;;;14.12;85.02
5550;BME280;2798;42.716;23.256;2022-12-07T13:02:36;94366.19;;;14.03;85.21
5550;BME280;2798;42.716;23.256;2022-12-07T13:05:02;94385.22;;;14.12;85.13
5550;BME280;2798;42.716;23.256;2022-12-07T13:18:36;94379.69;;;13.97;85.84
5550;BME280;2798;42.716;23.256;2022-12-07T13:28:46;94372.50;;;13.91;86.62
5550;BME280;2798;42.716;23.256;2022-12-07T13:33:55;94356.44;;;13.87;86.19
5550;BME280;2798;42.716;23.256;2022-12-07T13:36:36;94366.63;;;13.89;86.35
5550;BME280;2798;42.716;23.256;2022-12-07T13:41:42;94349.94;;;13.73;86.35
5550;BME280;2798;42.716;23.256;2022-12-07T13:44:16;94356.16;;;13.80;86.68
5550;BME280;2798;42.716;23.256;2022-12-07T13:47:09;94365.97;;;13.77;86.79
5550;BME280;2798;42.716;23.256;2022-12-07T13:49:46;94358.63;;;13.72;87.30
5550;BME280;2798;42.716;23.256;2022-12-07T13:52:24;94362.19;;;13.71;87.41
5550;BME280;2798;42.716;23.256;2022-12-07T13:55:05;94381.78;;;13.74;87.31
5550;BME280;2798;42.716;23.256;2022-12-07T13:57:38;94357.97;;;13.70;87.56
5550;BME280;2798;42.716;23.256;2022-12-07T14:00:06;94364.63;;;13.72;87.20
5550;BME280;2798;42.716;23.256;2022-12-07T14:02:55;94361.63;;;13.67;87.58
5550;BME280;2798;42.716;23.256;2022-12-07T14:05:27;94372.66;;;13.69;87.30
5550;BME280;2798;42.716;23.256;2022-12-07T14:16:02;94368.34;;;13.60;87.65
5550;BME280;2798;42.716;23.256;2022-12-07T14:18:46;94299.25;;;13.13;88.21
5550;BME280;2798;42.716;23.256;2022-12-07T14:23:38;94353.91;;;13.38;88.77
5550;BME280;2798;42.716;23.256;2022-12-07T14:26:11;94368.47;;;13.39;88.78
5550;BME280;2798;42.716;23.256;2022-12-07T14:28:38;94363.16;;;13.30;88.85
5550;BME280;2798;42.716;23.256;2022-12-07T14:31:11;94370.91;;;13.30;89.02
5550;BME280;2798;42.716;23.256;2022-12-07T14:33:37;94399.34;;;13.20;89.04
5550;BME280;2798;42.716;23.256;2022-12-07T14:36:03;94371.31;;;13.16;89.31
5550;BME280;2798;42.716;23.256;2022-12-07T14:38:29;94357.19;;;13.00;89.46
5550;BME280;2798;42.716;23.256;2022-12-07T14:40:55;94367.09;;;13.05;89.96
5550;BME280;2798;42.716;23.256;2022-12-07T14:43:41;94359.06;;;12.88;90.09
5550;BME280;2798;42.716;23.256;2022-12-07T14:46:06;94360.72;;;12.89;90.10
5550;BME280;2798;42.716;23.256;2022-12-07T14:48:31;94371.06;;;12.89;90.53
5550;BME280;2798;42.716;23.256;2022-12-07T14:50:57;94365.47;;;12.84;90.34
5550;BME280;2798;42.716;23.256;2022-12-07T14:53:28;94376.88;;;12.81;91.03
5550;BME280;2798;42.716;23.256;2022-12-07T14:55:54;94381.91;;;12.73;91.07
5550;BME280;2798;42.716;23.256;2022-12-07T14:58:20;94377.13;;;12.68;90.93
5550;BME280;2798;42.716;23.256;2022-12-07T15:00:45;94385.28;;;12.64;91.81
5550;BME280;2798;42.716;23.256;2022-12-07T15:03:13;94377.94;;;12.59;91.67
5550;BME280;2798;42.716;23.256;2022-12-07T15:05:39;94381.97;;;12.52;91.71
5550;BME280;2798;42.716;23.256;2022-12-07T15:08:06;94388.16;;;12.29;91.55
5550;BME280;2798;42.716;23.256;2022-12-07T15:10:33;94383.09;;;11.96;87.66
5550;BME280;2798;42.716;23.256;2022-12-07T15:13:01;94386.44;;;11.66;87.86
5550;BME280;2798;42.716;23.256;2022-12-07T15:15:46;94388.94;;;11.46;88.78
5550;BME280;2798;42.716;23.256;2022-12-07T15:18:12;94392.97;;;11.27;89.18
5550;BME280;2798;42.716;23.256;2022-12-07T15:20:37;94378.31;;;11.06;89.39
5550;BME280;2798;42.716;23.256;2022-12-07T15:23:03;94392.66;;;10.87;90.19
5550;BME280;2798;42.716;23.256;2022-12-07T15:25:28;94400.06;;;10.69;90.39
5550;BME280;2798;42.716;23.256;2022-12-07T15:27:54;94389.28;;;10.75;92.02
5550;BME280;2798;42.716;23.256;2022-12-07T15:30:19;94392.44;;;10.79;92.40
5550;BME280;2798;42.716;23.256;2022-12-07T15:32:49;94385.56;;;10.45;91.59
5550;BME280;2798;42.716;23.256;2022-12-07T15:35:14;94397.41;;;10.36;91.60
5550;BME280;2798;42.716;23.256;2022-12-07T15:37:40;94391.78;;;10.20;91.63
5550;BME280;2798;42.716;23.256;2022-12-07T15:40:06;94396.81;;;10.33;93.23
5550;BME280;2798;42.716;23.256;2022-12-07T15:42:31;94400.41;;;10.42;93.65
5550;BME280;2798;42.716;23.256;2022-12-07T15:44:57;94404.41;;;10.23;91.78
5550;BME280;2798;42.716;23.256;2022-12-07T15:47:33;94401.25;;;10.08;91.92
5550;BME280;2798;42.716;23.256;2022-12-07T15:50:00;94401.84;;;10.11;93.07
5550;BME280;2798;42.716;23.256;2022-12-07T15:52:25;94404.53;;;10.21;93.36
5550;BME280;2798;42.716;23.256;2022-12-07T15:54:51;94319.78;;;9.51;92.21
5550;BME280;2798;42.716;23.256;2022-12-07T15:57:16;94401.56;;;9.80;92.28
5550;BME280;2798;42.716;23.256;2022-12-07T15:59:42;94404.88;;;9.94;93.29
5550;BME280;2798;42.716;23.256;2022-12-07T16:02:09;94395.41;;;10.06;93.89
5550;BME280;2798;42.716;23.256;2022-12-07T16:04:35;94404.66;;;10.20;94.76